Main page
METAR-TAF:

METAR-TAF

Airports :

Hrodna Airport

Grodno, Belarus

latitude: 53-36-06N, longitude: 024-03-18E, elevation: 135 m

Current weather observation

The report was made 13 minutes ago, at 11:30 UTC
Wind 8 kt from the South/Southwest with gusts up to 14 kt
Temperature 20°C
Humidity 53%
Pressure 1021 hPa
Visibility 10 km or more
no clouds below 1500 m and no cumulonimbus

METAR: UMMG 211130Z 21004G07MPS CAVOK 20/10 Q1021 R17/CLRD// NOSIG

Time: 14:43 (11:43 UTC)

Forecast

The report was made 42 minutes ago, at 11:01 UTC
Forecast valid from 21 at 12 UTC to 21 at 21 UTC
Wind 8 kt from the South/Southwest with gusts up to 17 kt
Visibility 10 km or more
Scattered clouds at a height of 2500 ft
Temporary
from 21 at 12 UTC to 21 at 18 UTC
Wind 12 kt from the South/Southwest
Temporary
from 21 at 18 UTC to 21 at 21 UTC
Wind 6 kt from the South/Southwest
Visibility: 5000 m
mist

TAF: UMMG 211101Z 2112/2121 21004G09MPS 9999 SCT025 TEMPO 2112/2118 20006MPS TEMPO 2118/2121 20003MPS 5000 BR

Weather observations and forecasts of more than 4000 airports (METAR and TAF reports).

The available stations are represented by yellow and red dots on the map.

Hover mouse over dot to see the name of the station.

Then click to see weather observations and forecasts.

To change the map : click on the green buttons with a black cross to zoom in, on the green button with a dash to zoom out, or on the green arrows for adjacent maps.


METAR-TAF: